Time;durP1;ratioP1;P1;durP2;ratioP2;P2;SDS_P1;SDS_P2;PMS_P1;PMS_P2;Temp;Humidity;BMP_temperature;BMP_pressure;BME280_temperature;BME280_humidity;BME280_pressure;Samples;Min_cycle;Max_cycle;Signal;HPM_P1;HPM_P2
2020/12/15 00:00:28;;;;;;;31.48;18.25;;;3.50;99.90;;;;;;5029165;28;20140;-65
2020/12/15 00:02:55;;;;;;;37.40;20.05;;;3.50;99.90;;;;;;5026571;28;20045;-67
2020/12/15 00:05:21;;;;;;;32.50;20.48;;;3.60;99.90;;;;;;5031863;28;20068;-66
2020/12/15 00:07:47;;;;;;;35.53;21.23;;;3.60;99.90;;;;;;5021117;28;20559;-65
2020/12/15 00:10:14;;;;;;;38.47;22.02;;;3.60;99.90;;;;;;5026162;28;20043;-64
2020/12/15 00:12:41;;;;;;;33.90;21.33;;;3.60;99.90;;;;;;5031746;28;20163;-70
2020/12/15 00:15:09;;;;;;;34.35;21.10;;;3.60;99.90;;;;;;5027815;28;20053;-66
2020/12/15 00:17:35;;;;;;;37.58;22.17;;;3.70;99.90;;;;;;5029785;28;20468;-67
2020/12/15 00:20:07;;;;;;;45.25;25.70;;;3.70;99.90;;;;;;5024326;28;20045;-66
2020/12/15 00:22:35;;;;;;;46.85;25.00;;;3.70;99.90;;;;;;5026382;28;20041;-64
2020/12/15 00:25:04;;;;;;;40.25;24.27;;;3.70;99.90;;;;;;5027954;28;20154;-64
2020/12/15 00:27:30;;;;;;;50.33;26.92;;;3.80;99.90;;;;;;5023919;28;20049;-66
2020/12/15 00:29:56;;;;;;;49.20;28.88;;;3.80;99.90;;;;;;5024203;28;20500;-65
2020/12/15 00:32:23;;;;;;;45.45;26.08;;;3.80;99.90;;;;;;5031461;28;20469;-66
2020/12/15 00:34:50;;;;;;;49.25;26.35;;;3.80;99.90;;;;;;5029238;28;20261;-65
2020/12/15 00:37:17;;;;;;;50.17;27.58;;;3.80;99.90;;;;;;5026088;28;20041;-64
2020/12/15 00:39:43;;;;;;;56.35;29.15;;;3.80;99.90;;;;;;5026161;28;20100;-67
2020/12/15 00:42:10;;;;;;;52.25;30.98;;;3.80;99.90;;;;;;5026391;28;20068;-69
2020/12/15 00:44:36;;;;;;;50.65;31.25;;;3.90;99.90;;;;;;5029159;28;20065;-68
2020/12/15 00:47:03;;;;;;;56.28;29.33;;;3.90;99.90;;;;;;5024653;28;20134;-69
2020/12/15 00:49:30;;;;;;;57.00;33.05;;;3.90;99.90;;;;;;5024304;28;20041;-65
2020/12/15 00:51:57;;;;;;;63.78;32.58;;;3.90;99.90;;;;;;5022095;28;20053;-66
2020/12/15 00:54:23;;;;;;;58.45;31.77;;;4.00;99.90;;;;;;5022850;28;20050;-66
2020/12/15 00:56:50;;;;;;;64.55;31.92;;;4.00;99.90;;;;;;5029369;28;20489;-69
2020/12/15 00:59:17;;;;;;;60.55;32.05;;;4.00;99.90;;;;;;5027382;28;20049;-66
2020/12/15 01:01:43;;;;;;;55.83;31.38;;;4.00;99.90;;;;;;5024812;28;20057;-65
2020/12/15 01:04:12;;;;;;;65.15;32.60;;;4.00;99.90;;;;;;5030278;28;20152;-66
2020/12/15 01:06:39;;;;;;;54.22;30.70;;;4.10;99.90;;;;;;5015106;28;20390;-64
2020/12/15 01:09:07;;;;;;;54.28;30.88;;;4.10;99.90;;;;;;5002109;28;20128;-66
2020/12/15 01:11:34;;;;;;;67.47;36.28;;;4.10;99.90;;;;;;5007949;28;20065;-65
2020/12/15 01:14:04;;;;;;;69.90;32.05;;;4.10;99.90;;;;;;5002577;28;20088;-65
2020/12/15 01:16:34;;;;;;;63.38;33.08;;;4.10;99.90;;;;;;5011329;28;20577;-66
2020/12/15 01:19:02;;;;;;;63.85;35.88;;;4.10;99.90;;;;;;5021764;28;20117;-66
2020/12/15 01:21:33;;;;;;;86.18;37.03;;;4.10;99.90;;;;;;5028198;28;20382;-67
2020/12/15 01:24:02;;;;;;;53.30;30.55;;;4.20;99.90;;;;;;5029535;28;20045;-67
2020/12/15 01:26:31;;;;;;;58.15;31.30;;;4.20;99.90;;;;;;5022035;28;20041;-66
2020/12/15 01:28:59;;;;;;;56.53;32.75;;;4.20;99.90;;;;;;5021982;28;20473;-64
2020/12/15 01:31:27;;;;;;;52.65;29.95;;;4.30;99.90;;;;;;5028256;28;20051;-67
2020/12/15 01:34:17;;;;;;;54.50;31.23;;;4.30;99.90;;;;;;5010837;28;20041;-65
2020/12/15 01:36:53;;;;;;;51.70;30.40;;;4.30;99.90;;;;;;5030276;28;20033;-69
2020/12/15 01:39:23;;;;;;;50.05;30.65;;;4.30;99.90;;;;;;5033786;28;20077;-66
2020/12/15 01:42:00;;;;;;;57.83;28.77;;;4.30;99.90;;;;;;5023226;28;20143;-70
2020/12/15 01:44:27;;;;;;;50.55;27.85;;;4.40;99.90;;;;;;5027010;28;20111;-66
2020/12/15 01:46:56;;;;;;;54.85;31.33;;;4.40;99.90;;;;;;5056643;28;20148;-66
2020/12/15 01:49:30;;;;;;;50.78;30.23;;;4.40;99.90;;;;;;5026845;28;20149;-68
2020/12/15 01:52:00;;;;;;;48.22;28.80;;;4.50;99.90;;;;;;5035262;28;20049;-64
2020/12/15 01:54:40;;;;;;;56.43;31.00;;;4.50;99.90;;;;;;5030496;28;20056;-65
2020/12/15 01:57:08;;;;;;;54.65;29.60;;;4.50;99.90;;;;;;5028705;28;20042;-66
2020/12/15 01:59:46;;;;;;;54.17;31.55;;;4.40;99.90;;;;;;5033444;28;20087;-66
2020/12/15 02:02:20;;;;;;;47.88;28.33;;;4.50;99.90;;;;;;5026261;28;20128;-65
2020/12/15 02:04:52;;;;;;;59.63;31.80;;;4.50;99.90;;;;;;5030126;28;20441;-66
2020/12/15 02:07:22;;;;;;;53.30;32.10;;;4.50;99.90;;;;;;5037115;28;20083;-67
2020/12/15 02:10:07;;;;;;;51.83;30.90;;;4.50;99.90;;;;;;5027432;28;20658;-65
2020/12/15 02:12:49;;;;;;;58.80;31.40;;;4.50;99.90;;;;;;5032825;28;20336;-69
2020/12/15 02:15:18;;;;;;;55.07;29.27;;;4.50;99.90;;;;;;5030043;28;20041;-66
2020/12/15 02:17:51;;;;;;;56.58;31.25;;;4.50;99.90;;;;;;5058879;28;20053;-66
2020/12/15 02:20:40;;;;;;;56.50;30.77;;;4.50;99.90;;;;;;5026518;28;20114;-66
2020/12/15 02:23:13;;;;;;;54.60;29.73;;;4.60;99.90;;;;;;5034056;28;20056;-65
2020/12/15 02:25:47;;;;;;;52.90;30.55;;;4.60;99.90;;;;;;5056740;28;20095;-65
2020/12/15 02:28:14;;;;;;;56.05;31.17;;;4.60;99.90;;;;;;5055164;28;20124;-66
2020/12/15 02:30:40;;;;;;;55.55;32.88;;;4.60;99.90;;;;;;5031602;28;20456;-67
2020/12/15 02:33:16;;;;;;;59.15;32.80;;;4.60;99.90;;;;;;5025160;28;20060;-69
2020/12/15 02:35:46;;;;;;;58.50;32.58;;;4.60;99.90;;;;;;5052959;28;20045;-66
2020/12/15 02:38:13;;;;;;;54.22;31.98;;;4.60;99.90;;;;;;5027724;28;20048;-65
2020/12/15 02:40:39;;;;;;;56.53;33.08;;;4.70;99.90;;;;;;5030063;28;20041;-64
2020/12/15 02:43:09;;;;;;;58.40;32.50;;;4.70;99.90;;;;;;5033398;28;20044;-65
2020/12/15 02:45:37;;;;;;;57.17;33.95;;;4.70;99.90;;;;;;5025746;28;20528;-70
2020/12/15 02:48:09;;;;;;;64.38;34.08;;;4.70;99.90;;;;;;5024018;28;20049;-64
2020/12/15 02:50:36;;;;;;;68.03;34.92;;;4.70;99.90;;;;;;5017954;28;20814;-67
2020/12/15 02:53:20;;;;;;;69.30;36.33;;;4.80;99.90;;;;;;5038226;28;20759;-64
2020/12/15 02:55:47;;;;;;;59.38;34.50;;;4.80;99.90;;;;;;5029100;28;20751;-65
2020/12/15 02:58:20;;;;;;;69.97;34.92;;;4.80;99.90;;;;;;5024717;28;20822;-65
2020/12/15 03:00:50;;;;;;;;;;;4.80;99.90;;;;;;5030937;28;20064;-66
2020/12/15 03:03:19;;;;;;;63.85;35.80;;;4.80;99.90;;;;;;5026861;28;20019;-67
2020/12/15 03:05:58;;;;;;;67.40;35.65;;;4.80;99.90;;;;;;5027105;28;20096;-67
2020/12/15 03:08:26;;;;;;;72.75;36.83;;;4.80;99.90;;;;;;5028246;28;20917;-67
2020/12/15 03:10:55;;;;;;;76.75;41.08;;;4.80;99.90;;;;;;5026078;28;20543;-69
2020/12/15 03:13:22;;;;;;;68.93;39.70;;;4.90;99.90;;;;;;5026759;28;20393;-64
2020/12/15 03:15:49;;;;;;;78.20;42.03;;;4.90;99.90;;;;;;5031101;28;20041;-65
2020/12/15 03:18:21;;;;;;;66.15;38.17;;;4.90;99.90;;;;;;5024567;28;20041;-65
2020/12/15 03:20:50;;;;;;;71.43;38.92;;;4.90;99.90;;;;;;5029613;28;20038;-64
2020/12/15 03:23:21;;;;;;;74.65;38.85;;;4.90;99.90;;;;;;5023458;28;21293;-64
2020/12/15 03:26:09;;;;;;;77.88;41.10;;;4.90;99.90;;;;;;5009525;28;20577;-66
2020/12/15 03:28:35;;;;;;;79.30;40.58;;;5.00;99.90;;;;;;5023915;28;20049;-65
2020/12/15 03:31:06;;;;;;;78.72;39.22;;;5.00;99.90;;;;;;5030517;28;20038;-66
2020/12/15 03:33:36;;;;;;;69.90;37.53;;;5.00;99.90;;;;;;5040370;28;20065;-65
2020/12/15 03:36:04;;;;;;;68.30;34.45;;;5.00;99.90;;;;;;5029156;28;20501;-70
2020/12/15 03:38:34;;;;;;;78.65;41.20;;;5.00;99.90;;;;;;5053762;28;20437;-65
2020/12/15 03:41:01;;;;;;;66.97;36.70;;;5.00;99.90;;;;;;5026280;28;20041;-69
2020/12/15 03:43:38;;;;;;;69.20;40.58;;;5.00;99.90;;;;;;5025481;28;20045;-68
2020/12/15 03:46:15;;;;;;;71.82;38.22;;;5.10;99.90;;;;;;5025500;28;20647;-65
2020/12/15 03:48:43;;;;;;;67.72;36.83;;;5.10;99.90;;;;;;5024543;28;20037;-65
2020/12/15 03:51:09;;;;;;;73.60;39.35;;;5.10;99.90;;;;;;5034618;28;20123;-64
2020/12/15 03:53:54;;;;;;;88.03;43.95;;;5.10;99.90;;;;;;5051525;28;20048;-65
2020/12/15 03:56:23;;;;;;;64.32;37.05;;;5.10;99.90;;;;;;5032373;28;20782;-65
2020/12/15 03:58:50;;;;;;;67.05;36.33;;;5.10;99.90;;;;;;5044565;28;20052;-65
2020/12/15 04:01:17;;;;;;;75.93;38.83;;;5.10;99.90;;;;;;5026603;28;20051;-64
2020/12/15 04:03:48;;;;;;;68.38;37.15;;;5.10;99.90;;;;;;5033879;28;20053;-65
2020/12/15 04:06:25;;;;;;;64.97;37.20;;;5.10;99.90;;;;;;5026313;28;20126;-65
2020/12/15 04:09:00;;;;;;;68.95;36.28;;;5.20;99.90;;;;;;5024458;28;20115;-66
2020/12/15 04:11:27;;;;;;;71.75;37.92;;;5.20;99.90;;;;;;5025254;28;20176;-65
2020/12/15 04:13:54;;;;;;;78.65;39.40;;;5.30;99.90;;;;;;5024166;28;20056;-65
2020/12/15 04:16:20;;;;;;;73.22;39.15;;;5.20;99.90;;;;;;5025745;28;20051;-70
2020/12/15 04:18:57;;;;;;;87.32;41.45;;;5.20;99.90;;;;;;5023527;28;20440;-64
2020/12/15 04:21:28;;;;;;;66.45;35.58;;;5.20;99.90;;;;;;5025118;28;20049;-67
2020/12/15 04:23:58;;;;;;;63.35;35.03;;;5.20;99.90;;;;;;5028500;28;20484;-64
2020/12/15 04:26:30;;;;;;;80.03;37.30;;;5.20;99.90;;;;;;5026186;28;20435;-68
2020/12/15 04:28:57;;;;;;;69.57;37.67;;;5.20;99.90;;;;;;5022496;28;20044;-66
2020/12/15 04:31:30;;;;;;;73.75;39.40;;;5.20;99.90;;;;;;5026595;28;20523;-65
2020/12/15 04:34:01;;;;;;;90.15;41.30;;;5.30;99.90;;;;;;5052369;28;20624;-67
2020/12/15 04:36:28;;;;;;;82.45;42.17;;;5.30;99.90;;;;;;5024719;28;20044;-66
2020/12/15 04:38:55;;;;;;;79.68;39.42;;;5.30;99.90;;;;;;5064146;28;20049;-65
2020/12/15 04:41:37;;;;;;;87.88;40.75;;;5.30;99.90;;;;;;5024559;28;20041;-67
2020/12/15 04:44:04;;;;;;;78.57;40.90;;;5.30;99.90;;;;;;5025069;28;20540;-65
2020/12/15 04:46:45;;;;;;;85.70;42.20;;;5.30;99.90;;;;;;5024106;28;20377;-68
2020/12/15 04:49:18;;;;;;;76.30;38.92;;;5.30;99.90;;;;;;5026022;28;20044;-68
2020/12/15 04:52:04;;;;;;;74.13;37.67;;;5.30;99.90;;;;;;5025395;28;20045;-65
2020/12/15 04:54:51;;;;;;;76.20;38.55;;;5.30;99.90;;;;;;5024240;28;20779;-66
2020/12/15 04:57:25;;;;;;;79.07;38.83;;;5.40;99.90;;;;;;5023448;28;20064;-68
2020/12/15 04:59:53;;;;;;;72.40;36.05;;;5.40;99.90;;;;;;5029572;28;20045;-65
2020/12/15 05:02:40;;;;;;;79.10;40.17;;;5.40;99.90;;;;;;5032135;28;20353;-65
2020/12/15 05:05:09;;;;;;;75.60;36.88;;;5.40;99.90;;;;;;5053534;28;20272;-67
2020/12/15 05:07:40;;;;;;;82.93;43.83;;;5.40;99.90;;;;;;5029156;28;20060;-67
2020/12/15 05:10:32;;;;;;;76.35;39.92;;;5.40;99.90;;;;;;5022433;28;20049;-65
2020/12/15 05:13:16;;;;;;;84.18;43.60;;;5.40;99.90;;;;;;5026802;28;20049;-68
2020/12/15 05:15:42;;;;;;;82.10;39.70;;;5.40;99.90;;;;;;5034992;28;20056;-65
2020/12/15 05:18:28;;;;;;;83.70;41.90;;;5.40;99.90;;;;;;5027689;28;20052;-66
2020/12/15 05:20:56;;;;;;;84.72;39.70;;;5.40;99.90;;;;;;5059634;28;20057;-66
2020/12/15 05:23:27;;;;;;;86.10;39.53;;;5.40;99.90;;;;;;5029396;28;20540;-65
2020/12/15 05:26:03;;;;;;;95.55;44.33;;;5.40;99.90;;;;;;5029839;28;20063;-66
2020/12/15 05:28:46;;;;;;;98.20;42.85;;;5.40;99.90;;;;;;5029244;28;20044;-68
2020/12/15 05:31:14;;;;;;;102.47;45.00;;;5.40;99.90;;;;;;5034625;28;20048;-65
2020/12/15 05:34:03;;;;;;;85.15;44.30;;;5.40;99.90;;;;;;5023018;28;20052;-66
2020/12/15 05:36:58;;;;;;;80.28;39.58;;;5.50;99.90;;;;;;5002294;28;20534;-67
2020/12/15 05:39:43;;;;;;;86.63;42.35;;;5.50;99.90;;;;;;5033353;28;20052;-66
2020/12/15 05:42:18;;;;;;;84.40;42.75;;;5.50;99.90;;;;;;5025837;28;20042;-66
2020/12/15 05:44:45;;;;;;;79.85;39.60;;;5.50;99.90;;;;;;5029024;28;20056;-67
2020/12/15 05:47:21;;;;;;;80.75;40.17;;;5.50;99.90;;;;;;5028318;28;20045;-67
2020/12/15 05:49:57;;;;;;;100.50;44.13;;;5.50;99.90;;;;;;5059393;28;20063;-65
2020/12/15 05:52:29;;;;;;;90.13;37.85;;;5.60;99.90;;;;;;5027994;28;20132;-66
2020/12/15 05:55:11;;;;;;;81.20;39.08;;;5.60;99.90;;;;;;5035905;28;20057;-68
2020/12/15 05:57:44;;;;;;;83.82;40.10;;;5.60;99.90;;;;;;5022843;28;20606;-66
2020/12/15 06:00:11;;;;;;;79.95;38.22;;;5.60;99.90;;;;;;5029786;28;20152;-68
2020/12/15 06:02:41;;;;;;;82.63;37.75;;;5.60;99.90;;;;;;5034333;28;20432;-65
2020/12/15 06:05:08;;;;;;;88.85;42.75;;;5.60;99.90;;;;;;5029970;28;20048;-66
2020/12/15 06:07:35;;;;;;;83.03;35.50;;;5.70;99.90;;;;;;5029874;28;20045;-66
2020/12/15 06:10:04;;;;;;;82.15;36.13;;;5.70;99.90;;;;;;5024783;28;20045;-67
2020/12/15 06:12:31;;;;;;;78.30;36.47;;;5.70;99.90;;;;;;5024873;28;20472;-67
2020/12/15 06:14:58;;;;;;;76.70;36.25;;;5.70;99.90;;;;;;5029197;28;20057;-66
2020/12/15 06:17:25;;;;;;;86.47;35.67;;;5.70;99.90;;;;;;5026082;28;20614;-66
2020/12/15 06:19:52;;;;;;;82.97;38.63;;;5.70;99.90;;;;;;5033400;28;20077;-69
2020/12/15 06:22:23;;;;;;;78.22;36.72;;;5.70;99.90;;;;;;5032317;28;20048;-66
2020/12/15 06:24:58;;;;;;;71.78;37.08;;;5.70;99.90;;;;;;5030309;28;20057;-65
2020/12/15 06:27:35;;;;;;;74.47;36.45;;;5.70;99.90;;;;;;5025643;28;20048;-66
2020/12/15 06:30:06;;;;;;;78.18;36.90;;;5.70;99.90;;;;;;5024690;28;20441;-66
2020/12/15 06:32:33;;;;;;;72.03;36.92;;;5.80;99.90;;;;;;5028333;28;20049;-68
2020/12/15 06:35:06;;;;;;;67.78;32.85;;;5.80;99.90;;;;;;5031895;28;20053;-64
2020/12/15 06:37:36;;;;;;;75.60;34.88;;;5.80;99.90;;;;;;5027807;28;20045;-65
2020/12/15 06:40:05;;;;;;;76.72;36.22;;;5.80;99.90;;;;;;5030035;28;20049;-65
2020/12/15 06:42:32;;;;;;;70.30;33.97;;;5.80;99.90;;;;;;5034491;28;20733;-67
2020/12/15 06:45:05;;;;;;;67.72;32.15;;;5.80;99.90;;;;;;5028644;28;20301;-66
2020/12/15 06:47:32;;;;;;;66.22;37.22;;;5.80;99.90;;;;;;5035598;28;20053;-68
2020/12/15 06:50:15;;;;;;;72.85;35.53;;;5.80;99.90;;;;;;5022647;28;20069;-65
2020/12/15 06:52:42;;;;;;;75.20;34.35;;;5.90;99.90;;;;;;5055509;28;20083;-67
2020/12/15 06:55:08;;;;;;;69.18;32.85;;;5.90;99.90;;;;;;5038320;28;20500;-66
2020/12/15 06:57:37;;;;;;;56.38;31.05;;;5.90;99.90;;;;;;5031240;28;20044;-66
2020/12/15 07:00:11;;;;;;;62.63;34.63;;;5.90;99.90;;;;;;5032735;28;20053;-71
2020/12/15 07:02:38;;;;;;;69.43;32.45;;;5.90;99.90;;;;;;5033748;28;20063;-67
2020/12/15 07:05:22;;;;;;;63.63;30.42;;;5.90;99.90;;;;;;5027880;28;20426;-66
2020/12/15 07:07:51;;;;;;;57.33;27.13;;;5.90;99.90;;;;;;5033273;28;20052;-69
2020/12/15 07:10:20;;;;;;;54.25;31.88;;;5.90;99.90;;;;;;5026611;28;20041;-65
2020/12/15 07:12:48;;;;;;;54.42;28.48;;;5.90;99.90;;;;;;5029421;28;20045;-67
2020/12/15 07:15:19;;;;;;;61.20;29.52;;;5.90;99.90;;;;;;5027017;28;20072;-67
2020/12/15 07:17:50;;;;;;;57.30;30.55;;;5.90;99.90;;;;;;5025405;28;20220;-68
2020/12/15 07:20:21;;;;;;;60.03;30.20;;;5.90;99.90;;;;;;5029723;28;20071;-69
2020/12/15 07:22:48;;;;;;;61.35;30.88;;;5.90;99.90;;;;;;5034267;28;20045;-67
2020/12/15 07:25:15;;;;;;;59.58;30.08;;;6.00;99.90;;;;;;5025872;28;20510;-71
2020/12/15 07:27:43;;;;;;;56.28;28.48;;;6.00;99.90;;;;;;5030927;28;20130;-68
2020/12/15 07:30:20;;;;;;;60.40;30.75;;;6.00;99.90;;;;;;5029521;28;20060;-66
2020/12/15 07:32:48;;;;;;;52.97;28.30;;;6.00;99.90;;;;;;5026389;28;20064;-67
2020/12/15 07:35:20;;;;;;;65.57;33.28;;;6.00;99.90;;;;;;5024896;28;20045;-67
2020/12/15 07:37:49;;;;;;;68.45;31.73;;;5.90;99.90;;;;;;5028639;28;20042;-66
2020/12/15 07:40:17;;;;;;;66.45;33.13;;;6.00;99.90;;;;;;5025750;28;20127;-67
2020/12/15 07:42:54;;;;;;;62.17;30.05;;;6.00;99.90;;;;;;5033111;28;20052;-65
2020/12/15 07:45:24;;;;;;;60.33;30.85;;;6.00;99.90;;;;;;5025878;28;20481;-69
2020/12/15 07:47:51;;;;;;;62.78;29.27;;;6.00;99.90;;;;;;5026296;28;20119;-66
2020/12/15 07:50:29;;;;;;;65.70;33.15;;;6.00;99.90;;;;;;5032515;28;20037;-66
2020/12/15 07:53:07;;;;;;;60.78;32.13;;;6.00;99.90;;;;;;5025092;28;20049;-71
2020/12/15 07:55:33;;;;;;;71.45;32.10;;;6.00;99.90;;;;;;5036308;28;20049;-67
2020/12/15 07:58:02;;;;;;;68.50;34.85;;;6.10;99.90;;;;;;5025398;28;20088;-67
2020/12/15 08:00:29;;;;;;;65.45;34.00;;;6.10;99.90;;;;;;5024783;28;20041;-68
2020/12/15 08:03:01;;;;;;;73.28;35.88;;;6.10;99.90;;;;;;5033053;28;20123;-68
2020/12/15 08:05:28;;;;;;;71.50;33.92;;;6.10;99.90;;;;;;5025831;28;20131;-67
2020/12/15 08:08:02;;;;;;;72.43;35.88;;;6.10;99.90;;;;;;5027092;28;20041;-69
2020/12/15 08:10:33;;;;;;;78.43;37.75;;;6.10;99.90;;;;;;5033512;28;20028;-66
2020/12/15 08:13:01;;;;;;;71.90;34.45;;;6.10;99.90;;;;;;5023485;28;20037;-66
2020/12/15 08:15:29;;;;;;;79.05;32.72;;;6.10;99.90;;;;;;5032910;28;20470;-66
2020/12/15 08:17:58;;;;;;;88.00;37.45;;;6.10;99.90;;;;;;5026072;28;20324;-66
2020/12/15 08:20:29;;;;;;;80.65;40.03;;;6.20;99.90;;;;;;5023897;28;20045;-70
2020/12/15 08:23:23;;;;;;;77.85;34.72;;;6.20;99.90;;;;;;5030053;28;20053;-68
2020/12/15 08:25:56;;;;;;;82.85;37.40;;;6.10;99.90;;;;;;5024802;28;20415;-65
2020/12/15 08:28:23;;;;;;;75.25;36.35;;;6.20;99.90;;;;;;5025446;28;20046;-66
2020/12/15 08:30:56;;;;;;;79.40;39.30;;;6.20;99.90;;;;;;5030592;28;20060;-68
2020/12/15 08:33:24;;;;;;;86.45;38.55;;;6.10;99.90;;;;;;5024561;28;20057;-66
2020/12/15 08:35:52;;;;;;;76.03;38.30;;;6.10;99.90;;;;;;5026957;28;20073;-67
2020/12/15 08:38:20;;;;;;;84.93;37.50;;;6.20;99.90;;;;;;5025386;28;20063;-67
2020/12/15 08:40:55;;;;;;;83.95;38.95;;;6.20;99.90;;;;;;5025916;28;20045;-67
2020/12/15 08:43:23;;;;;;;86.95;42.08;;;6.20;99.90;;;;;;5023390;28;20397;-69
2020/12/15 08:45:50;;;;;;;85.57;43.85;;;6.20;99.90;;;;;;5024968;28;20042;-67
2020/12/15 08:48:19;;;;;;;79.85;39.78;;;6.20;99.90;;;;;;5024958;28;20156;-67
2020/12/15 08:50:46;;;;;;;75.47;38.15;;;6.20;99.90;;;;;;5031837;28;20041;-68
2020/12/15 08:53:16;;;;;;;91.82;41.92;;;6.20;99.90;;;;;;5025672;28;20041;-66
2020/12/15 08:55:47;;;;;;;82.65;38.78;;;6.20;99.90;;;;;;5032407;28;20056;-68
2020/12/15 08:58:14;;;;;;;78.93;37.80;;;6.30;99.90;;;;;;5022553;28;20045;-66
2020/12/15 09:00:44;;;;;;;75.35;38.05;;;6.20;99.90;;;;;;5023136;28;20037;-72
2020/12/15 09:03:14;;;;;;;81.63;38.17;;;6.30;99.90;;;;;;5025453;28;20155;-70
2020/12/15 09:05:52;;;;;;;88.03;41.00;;;6.20;99.90;;;;;;5027162;28;20069;-67
2020/12/15 09:08:24;;;;;;;82.45;38.80;;;6.30;99.90;;;;;;5022542;28;20512;-66
2020/12/15 09:10:52;;;;;;;72.75;37.35;;;6.30;99.90;;;;;;5033476;28;20235;-68
2020/12/15 09:13:19;;;;;;;73.35;37.40;;;6.30;99.90;;;;;;5024317;28;20088;-66
2020/12/15 09:15:56;;;;;;;79.30;39.03;;;6.30;99.90;;;;;;5023208;28;20049;-68
2020/12/15 09:18:31;;;;;;;70.82;37.58;;;6.30;99.90;;;;;;5031734;28;20052;-68
2020/12/15 09:21:11;;;;;;;82.97;40.15;;;6.30;99.90;;;;;;5024938;28;20080;-66
2020/12/15 09:23:42;;;;;;;78.35;40.65;;;6.30;99.90;;;;;;5031314;28;20145;-66
2020/12/15 09:26:08;;;;;;;79.63;39.43;;;6.30;99.90;;;;;;5028884;28;20091;-67
2020/12/15 09:28:35;;;;;;;74.53;39.83;;;6.30;99.90;;;;;;5024369;28;20286;-66
2020/12/15 09:31:02;;;;;;;78.22;42.05;;;6.40;99.90;;;;;;5032589;28;20509;-71
2020/12/15 09:33:29;;;;;;;74.57;37.42;;;6.30;99.90;;;;;;5024300;28;20048;-67
2020/12/15 09:35:55;;;;;;;84.50;40.67;;;6.30;99.90;;;;;;5026903;28;20329;-66
2020/12/15 09:38:21;;;;;;;77.53;38.83;;;6.40;99.90;;;;;;5022547;28;20385;-71
2020/12/15 09:40:48;;;;;;;80.82;39.92;;;6.40;99.90;;;;;;5026343;28;20344;-66
2020/12/15 09:43:15;;;;;;;78.03;38.85;;;6.40;99.90;;;;;;5026471;28;20037;-68
2020/12/15 09:45:49;;;;;;;86.35;41.95;;;6.40;99.90;;;;;;5038796;28;20041;-67
2020/12/15 09:48:16;;;;;;;80.68;38.75;;;6.40;99.90;;;;;;5024788;28;20041;-68
2020/12/15 09:50:42;;;;;;;76.93;40.40;;;6.40;99.90;;;;;;5026952;28;20355;-69
2020/12/15 09:53:09;;;;;;;70.55;37.13;;;6.40;99.90;;;;;;5027157;28;20163;-66
2020/12/15 09:55:36;;;;;;;85.18;40.65;;;6.40;99.90;;;;;;5030501;28;20098;-66
2020/12/15 09:58:02;;;;;;;78.93;41.45;;;6.50;99.90;;;;;;5034085;28;20694;-68
2020/12/15 10:00:30;;;;;;;77.93;39.75;;;6.40;99.90;;;;;;5029072;28;20226;-66
2020/12/15 10:02:56;;;;;;;72.22;38.30;;;6.50;99.90;;;;;;5034269;28;20056;-67
2020/12/15 10:05:23;;;;;;;82.78;39.88;;;6.50;99.90;;;;;;5028923;28;20034;-66
2020/12/15 10:07:49;;;;;;;81.28;40.40;;;6.50;99.90;;;;;;5031666;28;20081;-71
2020/12/15 10:10:16;;;;;;;79.28;42.70;;;6.50;99.90;;;;;;5037222;28;20127;-68
2020/12/15 10:12:45;;;;;;;75.93;38.53;;;6.50;99.90;;;;;;5031332;28;20052;-68
2020/12/15 10:15:13;;;;;;;74.32;37.85;;;6.50;99.90;;;;;;5035018;28;20128;-67
2020/12/15 10:17:40;;;;;;;72.03;34.30;;;6.50;99.90;;;;;;5029639;28;20423;-66
2020/12/15 10:20:08;;;;;;;72.70;38.67;;;6.50;99.90;;;;;;5028299;28;20147;-68
2020/12/15 10:22:34;;;;;;;69.28;35.40;;;6.50;99.90;;;;;;5033325;28;20050;-66
2020/12/15 10:25:01;;;;;;;68.25;36.92;;;6.50;99.90;;;;;;5031778;28;20045;-66
2020/12/15 10:27:28;;;;;;;64.45;35.22;;;6.50;99.90;;;;;;5035129;28;20057;-66
2020/12/15 10:29:54;;;;;;;63.58;34.00;;;6.50;99.90;;;;;;5032110;28;20146;-67
2020/12/15 10:32:24;;;;;;;63.97;34.17;;;6.60;99.90;;;;;;5028646;28;20056;-66
2020/12/15 10:34:52;;;;;;;69.05;34.35;;;6.60;99.90;;;;;;5031408;28;20140;-67
2020/12/15 10:37:25;;;;;;;67.72;35.50;;;6.60;99.90;;;;;;5026326;28;20859;-67
2020/12/15 10:39:54;;;;;;;76.00;37.00;;;6.60;99.90;;;;;;5026887;28;20053;-68
2020/12/15 10:42:26;;;;;;;81.00;39.70;;;6.60;99.90;;;;;;5030791;28;20312;-69
2020/12/15 10:44:52;;;;;;;79.57;38.72;;;6.60;99.90;;;;;;5025994;28;20041;-67
2020/12/15 10:47:19;;;;;;;72.88;37.60;;;6.60;99.90;;;;;;5028831;28;20045;-66
2020/12/15 10:49:46;;;;;;;76.22;40.42;;;6.60;99.90;;;;;;5026627;28;20065;-67
2020/12/15 10:52:12;;;;;;;68.80;38.38;;;6.70;99.90;;;;;;5027903;28;20602;-68
2020/12/15 10:54:39;;;;;;;70.78;38.22;;;6.70;99.90;;;;;;5028255;28;20592;-67
2020/12/15 10:57:05;;;;;;;80.72;39.08;;;6.70;99.90;;;;;;5027265;28;20084;-66
2020/12/15 10:59:32;;;;;;;72.43;36.53;;;6.70;99.90;;;;;;5025081;28;20237;-66
2020/12/15 11:01:58;;;;;;;69.88;37.35;;;6.70;99.90;;;;;;5026479;28;20167;-67
2020/12/15 11:04:25;;;;;;;62.33;34.50;;;6.70;99.90;;;;;;5033061;28;20044;-67
2020/12/15 11:06:51;;;;;;;62.35;35.35;;;6.70;99.90;;;;;;5028864;28;20532;-68
2020/12/15 11:09:17;;;;;;;67.95;39.15;;;6.70;99.90;;;;;;5023112;28;20042;-68
2020/12/15 11:11:47;;;;;;;55.08;34.63;;;6.70;99.90;;;;;;5026199;28;20385;-66
2020/12/15 11:14:16;;;;;;;68.05;41.40;;;6.70;99.90;;;;;;5034005;28;20052;-67
2020/12/15 11:17:01;;;;;;;63.33;35.40;;;6.80;99.90;;;;;;5028626;28;20724;-67
2020/12/15 11:19:28;;;;;;;58.78;33.22;;;6.80;99.90;;;;;;5028300;28;20048;-65
2020/12/15 11:21:55;;;;;;;65.53;38.55;;;6.80;99.90;;;;;;5025554;28;20103;-71
2020/12/15 11:24:21;;;;;;;67.18;35.55;;;6.80;99.90;;;;;;5027914;28;20074;-66
2020/12/15 11:26:52;;;;;;;70.40;37.22;;;6.80;99.90;;;;;;5034557;28;20048;-70
2020/12/15 11:29:19;;;;;;;64.00;31.77;;;6.80;99.90;;;;;;5028887;28;20029;-66
2020/12/15 11:31:52;;;;;;;62.15;31.40;;;6.80;99.90;;;;;;5028370;28;20776;-68
2020/12/15 11:34:20;;;;;;;67.65;36.63;;;6.80;99.90;;;;;;5025769;28;20497;-67
2020/12/15 11:36:51;;;;;;;56.83;34.85;;;6.80;99.90;;;;;;5025808;28;20045;-68
2020/12/15 11:39:17;;;;;;;59.30;33.85;;;6.70;99.90;;;;;;5026178;28;20049;-66
2020/12/15 11:41:46;;;;;;;54.13;32.03;;;6.80;99.90;;;;;;5026104;28;20053;-66
2020/12/15 11:44:12;;;;;;;57.00;32.67;;;6.80;99.90;;;;;;5024638;28;20046;-67
2020/12/15 11:46:56;;;;;;;59.83;32.40;;;6.80;99.90;;;;;;5028798;28;20056;-68
2020/12/15 11:49:22;;;;;;;57.20;31.42;;;6.80;99.90;;;;;;5027874;28;20567;-68
2020/12/15 11:51:52;;;;;;;56.75;32.30;;;6.70;99.90;;;;;;5025337;28;20068;-67
2020/12/15 11:54:19;;;;;;;;;;;6.80;99.90;;;;;;5030228;28;20069;-66
2020/12/15 11:56:46;;;;;;;56.88;32.47;;;6.80;99.90;;;;;;5028707;28;19967;-69
2020/12/15 11:59:20;;;;;;;53.92;31.52;;;6.70;99.90;;;;;;5028296;28;20489;-66
2020/12/15 12:01:46;;;;;;;56.53;35.42;;;6.70;99.90;;;;;;5032274;28;20213;-66
2020/12/15 12:04:13;;;;;;;61.55;35.67;;;6.70;99.90;;;;;;5024280;28;20045;-68
2020/12/15 12:06:39;;;;;;;69.57;39.05;;;6.70;99.90;;;;;;5032060;28;20394;-66
2020/12/15 12:09:05;;;;;;;66.57;39.53;;;6.70;99.90;;;;;;5023003;28;20065;-66
2020/12/15 12:11:32;;;;;;;65.07;37.20;;;6.70;99.90;;;;;;5025038;28;20080;-69
2020/12/15 12:13:58;;;;;;;78.20;41.33;;;6.70;99.90;;;;;;5032046;28;20107;-67
2020/12/15 12:16:25;;;;;;;76.60;41.42;;;6.60;99.90;;;;;;5027760;28;20069;-69
2020/12/15 12:18:51;;;;;;;78.90;43.75;;;6.60;99.90;;;;;;5027138;28;20080;-68
2020/12/15 12:21:18;;;;;;;67.80;38.30;;;6.60;99.90;;;;;;5024286;28;20053;-65
2020/12/15 12:23:44;;;;;;;77.88;39.28;;;6.60;99.90;;;;;;5027032;28;20052;-67
2020/12/15 12:26:14;;;;;;;70.82;39.50;;;6.60;99.90;;;;;;5022563;28;20540;-68
2020/12/15 12:28:41;;;;;;;76.63;41.08;;;6.60;99.90;;;;;;5021584;28;20385;-67
2020/12/15 12:31:11;;;;;;;79.38;42.17;;;6.60;99.90;;;;;;5026100;28;20704;-65
2020/12/15 12:33:37;;;;;;;79.63;43.55;;;6.60;99.90;;;;;;5022865;28;20048;-68
2020/12/15 12:36:04;;;;;;;74.40;44.33;;;6.60;99.90;;;;;;5030763;28;20102;-67
2020/12/15 12:38:30;;;;;;;77.43;40.70;;;6.60;99.90;;;;;;5026316;28;20041;-66
2020/12/15 12:40:57;;;;;;;75.45;42.28;;;6.50;99.90;;;;;;5025994;28;20094;-68
2020/12/15 12:43:24;;;;;;;73.25;43.42;;;6.50;99.90;;;;;;5026025;28;20049;-68
2020/12/15 12:45:50;;;;;;;72.70;38.97;;;6.50;99.90;;;;;;5031906;28;20128;-66
2020/12/15 12:48:17;;;;;;;79.47;40.90;;;6.50;99.90;;;;;;5027225;28;20044;-68
2020/12/15 12:50:43;;;;;;;72.10;41.63;;;6.50;99.90;;;;;;5023127;28;20129;-70
2020/12/15 12:53:10;;;;;;;74.63;39.58;;;6.50;99.90;;;;;;5023022;28;20045;-66